Latest Weather Observations for Mornington Island Airport

IDQ60801

Issued at 3:05 pm EST Saturday 29 November 2014 (issued every 30 minutes, with the page automatically refreshed every 10 minutes)

About weather observations | Map of weather stations | Latest weather observations for QLD | Other Formats
Station Details ID: 029182 Name: MORNINGTON ISLAND AIRPORT Lat: -16.66 Lon: 139.17 Height: 9.0 m
Data from the previous 72 hours. | See also: Recent months at Mornington Island Airport
Date/Time
EST
Temp
°C
App
Temp
°C
Dew
Point
Rel
Hum
%
Delta-T
°C
Wind Press
QNH
hPa
Press
MSL
hPa
Rain
since 9 am
mm
Dir
 
Spd
km/h
Gust
km/h
Spd
kts
Gust
kts
29/03:00pm 31.4 31.0 21.6 56 6.6 N 26 35 14 19 1007.3 1007.2 0.2
29/02:30pm 31.2 30.9 21.1 55 6.8 N 24 32 13 17 1007.7 1007.6 0.2
29/02:00pm 31.9 32.9 22.9 59 6.2 NNE 22 32 12 17 1008.2 1008.1 0.2
29/01:30pm 30.7 31.4 22.3 61 5.7 NE 22 28 12 15 1008.6 1008.5 0.2
29/01:00pm 29.0 30.4 22.5 68 4.4 NE 19 24 10 13 1009.0 1008.9 0.2
29/12:30pm 26.1 28.6 23.2 84 2.0 NNE 15 22 8 12 1009.8 1009.7 0.0
29/12:00pm 27.0 27.5 21.1 70 3.9 N 20 26 11 14 1009.7 1009.6 0.0
29/11:30am 29.7 32.3 22.7 66 4.8 E 13 20 7 11 1010.0 1009.9 0.0
29/11:00am 28.5 30.9 23.0 72 3.8 E 15 20 8 11 1010.3 1010.2 0.0
29/10:30am 27.8 29.3 23.0 75 3.3 E 20 26 11 14 1010.3 1010.2 0.0
29/10:00am 30.2 32.5 22.1 62 5.5 N 13 19 7 10 1010.5 1010.4 0.0
29/09:30am 30.2 32.7 21.8 60 5.7 N 11 17 6 9 1010.5 1010.4 0.0
29/09:00am 29.8 33.4 22.3 64 5.1 NNW 7 13 4 7 1010.5 1010.4 0.0
29/08:30am 30.1 33.7 23.0 65 4.9 NE 9 11 5 6 1010.4 1010.3 0.0
29/08:00am 29.5 32.6 22.2 65 4.9 WNW 9 13 5 7 1010.2 1010.1 0.0
29/07:30am 29.9 34.2 22.6 65 5.0 W 4 9 2 5 1009.8 1009.7 0.0
29/07:00am 28.8 32.4 23.0 71 4.0 W 9 13 5 7 1009.2 1009.1 0.0
29/06:30am 28.4 31.1 22.9 72 3.7 WNW 13 17 7 9 1008.5 1008.4 0.0
29/06:00am 28.3 31.5 23.0 73 3.6 W 11 15 6 8 1008.1 1008.0 0.0
29/05:30am 28.3 31.5 23.0 73 3.6 W 11 15 6 8 1008.1 1008.0 0.0
29/05:00am 28.4 32.0 23.1 73 3.6 W 9 15 5 8 1008.0 1007.9 0.0
29/04:30am 28.6 32.2 23.1 72 3.8 WSW 9 13 5 7 1007.9 1007.8 0.0
29/04:00am 28.7 31.4 22.9 71 4.0 W 13 20 7 11 1008.1 1008.0 0.0
29/03:30am 28.6 30.7 23.1 72 3.8 W 17 22 9 12 1008.0 1007.9 0.0
29/03:00am 28.5 31.1 22.7 71 3.9 W 13 19 7 10 1007.9 1007.8 0.0
29/02:30am 28.4 30.0 22.2 69 4.2 WNW 17 20 9 11 1008.0 1007.9 0.0
29/02:00am 28.2 29.7 22.0 69 4.2 WNW 17 22 9 12 1007.6 1007.5 0.0
29/01:30am 28.1 29.3 22.1 70 4.0 NW 19 22 10 12 1007.5 1007.4 0.0
29/01:00am 28.0 30.5 22.5 72 3.7 NNW 13 19 7 10 1007.9 1007.8 0.0
29/12:30am 28.0 30.1 22.5 72 3.7 NNW 15 20 8 11 1008.2 1008.1 0.0
29/12:00am 27.8 30.2 22.3 72 3.7 NNW 13 17 7 9 1008.1 1008.0 0.0
 
Date/Time
EST
Temp
°C
App
Temp
°C
Dew
Point
Rel
Hum
%
Delta-T
°C
Wind Press
QNH
hPa
Press
MSL
hPa
Rain
since 9 am
mm
Dir
 
Spd
km/h
Gust
km/h
Spd
kts
Gust
kts
28/11:30pm 27.8 30.7 22.5 73 3.6 N 11 17 6 9 1008.4 1008.3 0.0
28/11:00pm 27.8 30.7 21.8 70 4.0 N 9 13 5 7 1009.1 1009.0 0.0
28/10:30pm 27.8 31.3 22.1 71 3.8 N 7 11 4 6 1009.4 1009.3 0.0
28/10:00pm 28.0 30.9 21.8 69 4.2 N 9 13 5 7 1009.1 1009.0 0.0
28/09:30pm 28.0 30.5 21.8 69 4.2 N 11 15 6 8 1008.8 1008.7 0.0
28/09:00pm 28.1 30.8 21.4 67 4.5 N 9 11 5 6 1008.8 1008.7 0.0
28/08:30pm 28.1 31.3 21.6 68 4.3 N 7 9 4 5 1008.9 1008.8 0.0
28/08:00pm 28.2 31.1 21.7 68 4.4 N 9 13 5 7 1009.0 1008.9 0.0
28/07:30pm 28.3 30.3 22.3 70 4.1 N 15 20 8 11 1008.5 1008.4 0.0
28/07:00pm 28.5 30.0 22.0 68 4.4 N 17 22 9 12 1008.1 1008.0 0.0
28/06:30pm 28.8 29.9 22.3 68 4.4 N 20 28 11 15 1007.8 1007.7 0.0
28/06:00pm 29.2 29.9 22.2 66 4.7 N 22 28 12 15 1007.6 1007.5 0.0
28/05:30pm 29.8 30.1 22.3 64 5.1 N 24 33 13 18 1007.4 1007.3 0.0
28/05:00pm 30.6 31.7 23.0 64 5.2 N 22 32 12 17 1007.3 1007.2 0.0
28/04:30pm 30.0 30.4 22.4 63 5.2 N 24 32 13 17 1007.5 1007.4 0.0
28/04:00pm 30.1 30.1 21.7 60 5.7 N 24 32 13 17 1007.4 1007.3 0.0
28/03:30pm 30.7 30.7 20.9 56 6.5 N 22 28 12 15 1007.5 1007.4 0.0
28/03:00pm 31.0 31.9 22.6 61 5.7 NNW 22 30 12 16 1007.8 1007.7 0.0
28/02:30pm 30.6 31.0 22.5 62 5.5 NNW 24 33 13 18 1008.3 1008.2 0.0
28/02:00pm 30.6 30.6 21.7 59 6.0 N 24 32 13 17 1008.7 1008.6 0.0
28/01:30pm 30.2 30.3 21.8 60 5.7 N 24 33 13 18 1008.9 1008.8 0.0
28/01:00pm 31.0 30.3 21.8 58 6.2 N 28 39 15 21 1009.3 1009.2 0.0
28/12:30pm 30.4 29.7 21.8 60 5.8 N 28 39 15 21 1009.7 1009.6 0.0
28/12:00pm 31.0 30.0 21.2 56 6.6 N 28 37 15 20 1010.3 1010.2 0.0
28/11:30am 30.3 30.5 20.5 55 6.5 N 20 30 11 16 1010.4 1010.3 0.0
28/11:00am 30.0 30.0 21.7 61 5.6 N 24 33 13 18 1010.6 1010.5 0.0
28/10:30am 30.0 30.8 21.7 61 5.6 N 20 30 11 16 1010.7 1010.6 0.0
28/10:00am 32.4 33.8 19.6 46 8.4 SE 11 19 6 10 1010.8 1010.7 0.0
28/09:30am 31.9 32.5 18.5 45 8.7 SE 13 20 7 11 1011.0 1010.9 0.0
28/09:00am 31.7 32.2 18.3 45 8.7 SE 13 19 7 10 1010.7 1010.6 0.0
28/08:30am 31.4 33.4 20.7 53 7.1 S 11 19 6 10 1010.5 1010.4 0.0
28/08:00am 30.1 32.9 22.3 63 5.3 S 11 17 6 9 1010.5 1010.4 0.0
28/07:30am 28.9 31.4 21.7 65 4.8 SSE 11 17 6 9 1010.4 1010.3 0.0
28/07:00am 28.3 31.5 22.3 70 4.1 SSE 9 15 5 8 1009.9 1009.8 0.0
28/06:30am 27.8 31.1 22.5 73 3.6 S 9 15 5 8 1009.3 1009.2 0.0
28/06:00am 27.1 30.3 22.3 75 3.2 S 9 15 5 8 1008.8 1008.7 0.0
28/05:30am 27.1 30.5 22.7 77 3.0 S 9 13 5 7 1008.4 1008.3 0.0
28/05:00am 27.5 30.2 22.9 76 3.1 S 13 22 7 12 1008.1 1008.0 0.0
28/04:30am 28.4 32.1 23.3 74 3.5 S 9 20 5 11 1007.8 1007.7 0.0
28/04:00am 29.2 32.2 23.4 71 4.0 WSW 13 19 7 10 1007.8 1007.7 0.0
28/03:30am 29.1 32.2 23.5 72 3.9 WSW 13 17 7 9 1007.9 1007.8 0.0
28/03:00am 29.1 32.6 23.5 72 3.9 WSW 11 15 6 8 1008.0 1007.9 0.0
28/02:30am 29.2 32.2 23.4 71 4.0 W 13 17 7 9 1007.9 1007.8 0.0
28/02:00am 29.1 31.3 23.3 71 4.0 NW 17 19 9 10 1007.8 1007.7 0.0
28/01:30am 29.2 31.5 23.4 71 4.0 NW 17 19 9 10 1007.9 1007.8 0.0
28/01:00am 29.2 31.0 23.2 70 4.1 WNW 19 22 10 12 1008.2 1008.1 0.0
28/12:30am 29.2 31.4 23.2 70 4.1 NW 17 20 9 11 1008.7 1008.6 0.0
28/12:00am 29.0 31.6 22.7 69 4.3 WNW 13 17 7 9 1008.9 1008.8 0.0
 
Date/Time
EST
Temp
°C
App
Temp
°C
Dew
Point
Rel
Hum
%
Delta-T
°C
Wind Press
QNH
hPa
Press
MSL
hPa
Rain
since 9 am
mm
Dir
 
Spd
km/h
Gust
km/h
Spd
kts
Gust
kts
27/11:30pm 29.0 31.4 23.0 70 4.1 WNW 15 19 8 10 1008.9 1008.8 0.0
27/11:00pm 29.0 31.3 22.7 69 4.3 W 15 20 8 11 1009.2 1009.1 0.0
27/10:30pm 29.0 31.4 23.0 70 4.1 W 15 20 8 11 1009.4 1009.3 0.0
27/10:00pm 29.0 32.0 23.4 72 3.9 W 13 17 7 9 1009.7 1009.6 0.0
27/09:30pm 29.0 32.6 23.7 73 3.7 NW 11 15 6 8 1009.8 1009.7 0.0
27/09:00pm 29.1 32.5 23.3 71 4.0 NNW 11 13 6 7 1009.9 1009.8 0.0
27/08:30pm 29.0 31.9 23.2 71 4.0 N 13 17 7 9 1009.5 1009.4 0.0
27/08:00pm 29.1 31.7 23.3 71 4.0 N 15 17 8 9 1009.0 1008.9 0.0
27/07:30pm 29.1 32.3 23.1 70 4.1 N 11 15 6 8 1009.0 1008.9 0.0
27/07:00pm 29.2 32.3 22.9 69 4.3 N 11 17 6 9 1008.9 1008.8 0.0
27/06:30pm 29.7 31.6 22.7 66 4.8 N 17 24 9 13 1008.5 1008.4 0.0
27/06:00pm 29.7 30.9 22.2 64 5.1 N 19 26 10 14 1008.4 1008.3 0.0
27/05:30pm 30.8 32.1 22.4 61 5.7 N 19 30 10 16 1008.3 1008.2 0.0
27/05:00pm 30.9 32.1 22.2 59 5.9 N 19 26 10 14 1008.2 1008.1 0.0
27/04:30pm 31.2 32.0 21.7 57 6.4 N 20 30 11 16 1007.9 1007.8 0.0
27/04:00pm 31.5 31.9 21.7 56 6.6 N 22 32 12 17 1007.8 1007.7 0.0
27/03:30pm 32.2 32.6 21.7 54 7.1 N 22 28 12 15 1007.8 1007.7 0.0
27/03:00pm 32.0 31.9 21.5 53 7.1 N 24 35 13 19 1008.0 1007.9 0.0
27/02:30pm 33.1 33.2 21.9 51 7.6 N 24 35 13 19 1008.6 1008.5 0.0
27/02:00pm 32.4 31.3 21.0 51 7.7 N 28 37 15 20 1008.8 1008.7 0.0
27/01:30pm 32.5 32.1 21.0 50 7.7 N 24 35 13 19 1009.3 1009.2 0.0
27/01:00pm 32.7 31.9 20.9 49 7.9 N 26 35 14 19 1009.7 1009.6 0.0
27/12:30pm 32.2 30.8 20.5 50 7.8 N 28 39 15 21 1010.0 1009.9 0.0
27/12:00pm 32.9 31.8 21.1 50 7.9 N 28 37 15 20 1010.0 1009.9 0.0
27/11:30am 33.7 34.1 22.5 52 7.7 N 24 35 13 19 1010.2 1010.1 0.0
27/11:00am 32.5 32.9 21.7 53 7.3 N 22 30 12 16 1010.7 1010.6 0.0
27/10:30am 32.8 33.2 21.0 50 7.9 ENE 20 28 11 15 1010.7 1010.6 0.0
27/10:00am 32.5 34.4 21.4 52 7.5 NNE 13 28 7 15 1010.6 1010.5 0.0
27/09:30am 32.9 34.5 20.8 49 8.1 ENE 13 20 7 11 1010.9 1010.8 0.0
27/09:00am 32.2 33.4 21.4 53 7.3 E 17 26 9 14 1011.1 1011.0 0.0
27/08:30am 30.9 32.8 21.4 57 6.4 E 13 19 7 10 1011.0 1010.9 0.0
27/08:00am 30.4 33.8 22.0 60 5.7 ENE 7 13 4 7 1010.9 1010.8 0.0
27/07:30am 29.1 32.2 22.1 66 4.7 NNE 9 13 5 7 1010.6 1010.5 0.0
27/07:00am 28.0 32.4 23.8 78 2.9 NE 7 11 4 6 1010.1 1010.0 0.0
27/06:30am 27.0 31.3 23.7 82 2.3 ENE 7 11 4 6 1009.8 1009.7 0.0
27/06:00am 26.9 30.0 23.6 82 2.3 ENE 13 17 7 9 1009.4 1009.3 0.0
27/05:30am 27.2 30.1 23.2 79 2.7 ENE 13 19 7 10 1009.0 1008.9 0.0
27/05:00am 28.1 32.0 23.0 74 3.5 SE 7 9 4 5 1008.1 1008.0 0.0
27/04:30am 28.4 32.0 23.1 73 3.6 SW 9 17 5 9 1007.5 1007.4 0.0
27/04:00am 28.4 31.4 23.3 74 3.5 WSW 13 19 7 10 1007.4 1007.3 0.0
27/03:30am 28.6 31.7 23.5 74 3.5 WSW 13 20 7 11 1007.3 1007.2 0.0
27/03:00am 28.7 32.2 23.6 74 3.5 WSW 11 19 6 10 1007.3 1007.2 0.0
27/02:30am 28.7 32.5 24.0 76 3.3 WSW 11 19 6 10 1007.4 1007.3 0.0
27/02:00am 28.8 32.1 23.9 75 3.4 W 13 19 7 10 1007.6 1007.5 0.0
27/01:30am 28.7 31.6 23.8 75 3.4 W 15 20 8 11 1007.9 1007.8 0.0
27/01:00am 28.8 31.6 23.7 74 3.5 W 15 20 8 11 1008.4 1008.3 0.0
27/12:30am 28.8 31.3 23.2 71 3.8 W 15 22 8 12 1008.6 1008.5 0.0
27/12:00am 28.8 31.3 23.2 71 3.8 W 15 20 8 11 1008.9 1008.8 0.0
 
Date/Time
EST
Temp
°C
App
Temp
°C
Dew
Point
Rel
Hum
%
Delta-T
°C
Wind Press
QNH
hPa
Press
MSL
hPa
Rain
since 9 am
mm
Dir
 
Spd
km/h
Gust
km/h
Spd
kts
Gust
kts
26/11:30pm 28.8 31.3 23.2 71 3.8 W 15 17 8 9 1009.0 1008.9 0.0
26/11:00pm 28.8 31.5 23.5 73 3.6 WNW 15 19 8 10 1009.0 1008.9 0.0
26/10:30pm 28.8 31.5 23.5 73 3.6 WNW 15 19 8 10 1008.9 1008.8 0.0
26/10:00pm 28.9 31.5 23.3 72 3.8 NW 15 19 8 10 1008.6 1008.5 0.0
26/09:30pm 28.9 31.5 23.3 72 3.8 NNW 15 19 8 10 1008.4 1008.3 0.0
26/09:00pm 28.8 31.3 23.2 71 3.8 NNW 15 20 8 11 1008.4 1008.3 0.0
26/08:30pm 28.6 31.7 22.8 71 3.9 N 11 13 6 7 1008.3 1008.2 0.0
26/08:00pm 28.7 31.8 22.9 71 4.0 N 11 15 6 8 1008.3 1008.2 0.0
26/07:30pm 28.9 31.5 22.6 69 4.3 NNW 13 15 7 8 1008.2 1008.1 0.0
26/07:00pm 29.2 31.6 22.2 66 4.7 N 13 17 7 9 1008.0 1007.9 0.0
26/06:30pm 29.8 31.4 21.5 61 5.6 N 15 20 8 11 1007.5 1007.4 0.0
26/06:00pm 30.5 31.6 20.4 54 6.7 N 15 20 8 11 1007.2 1007.1 0.0
26/05:30pm 31.0 32.2 20.6 54 6.9 N 15 24 8 13 1007.2 1007.1 0.0
26/05:00pm 31.1 31.5 20.7 54 6.9 N 19 24 10 13 1007.1 1007.0 0.0
26/04:30pm 32.0 32.1 20.3 50 7.8 NNW 20 28 11 15 1006.9 1006.8 0.0
26/04:00pm 31.9 31.7 19.8 48 8.0 NNW 20 30 11 16 1006.9 1006.8 0.0
26/03:30pm 31.8 32.0 20.1 50 7.7 N 19 24 10 13 1007.1 1007.0 0.0

Other Formats:

Comma delimited format used in spreadsheet applications
http://www.bom.gov.au/fwo/IDQ60801/IDQ60801.94254.axf

JavaScript Object Notation format (JSON) in row-major order
http://www.bom.gov.au/fwo/IDQ60801/IDQ60801.94254.json